sensor_id;sensor_type;location;lat;lon;timestamp;P1;durP1;ratioP1;P2;durP2;ratioP2
6207;SDS011;3137;51.550;7.060;2023-03-14T00:00:50;3.00;;;2.80;;
6207;SDS011;3137;51.550;7.060;2023-03-14T00:03:16;2.57;;;2.53;;
6207;SDS011;3137;51.550;7.060;2023-03-14T00:05:42;2.60;;;2.50;;
6207;SDS011;3137;51.550;7.060;2023-03-14T00:08:09;2.83;;;2.47;;
6207;SDS011;3137;51.550;7.060;2023-03-14T00:10:36;5.90;;;2.87;;
6207;SDS011;3137;51.550;7.060;2023-03-14T00:13:03;4.37;;;2.40;;
6207;SDS011;3137;51.550;7.060;2023-03-14T00:15:29;2.10;;;2.00;;
6207;SDS011;3137;51.550;7.060;2023-03-14T00:17:58;2.30;;;2.13;;
6207;SDS011;3137;51.550;7.060;2023-03-14T00:20:25;3.30;;;2.47;;
6207;SDS011;3137;51.550;7.060;2023-03-14T00:22:51;5.90;;;2.23;;
6207;SDS011;3137;51.550;7.060;2023-03-14T00:25:18;2.40;;;2.20;;
6207;SDS011;3137;51.550;7.060;2023-03-14T00:27:44;7.83;;;2.20;;
6207;SDS011;3137;51.550;7.060;2023-03-14T00:30:12;3.50;;;2.50;;
6207;SDS011;3137;51.550;7.060;2023-03-14T00:32:38;1.90;;;1.83;;
6207;SDS011;3137;51.550;7.060;2023-03-14T00:35:05;9.17;;;3.93;;
6207;SDS011;3137;51.550;7.060;2023-03-14T00:37:31;2.40;;;2.30;;
6207;SDS011;3137;51.550;7.060;2023-03-14T00:39:58;2.47;;;2.33;;
6207;SDS011;3137;51.550;7.060;2023-03-14T00:42:24;6.83;;;2.50;;
6207;SDS011;3137;51.550;7.060;2023-03-14T00:44:51;2.63;;;2.47;;
6207;SDS011;3137;51.550;7.060;2023-03-14T00:47:17;2.20;;;2.03;;
6207;SDS011;3137;51.550;7.060;2023-03-14T00:49:43;3.50;;;2.57;;
6207;SDS011;3137;51.550;7.060;2023-03-14T00:52:10;10.03;;;2.60;;
6207;SDS011;3137;51.550;7.060;2023-03-14T00:54:37;5.73;;;2.17;;
6207;SDS011;3137;51.550;7.060;2023-03-14T00:57:03;4.80;;;1.90;;
6207;SDS011;3137;51.550;7.060;2023-03-14T00:59:30;2.00;;;1.90;;
6207;SDS011;3137;51.550;7.060;2023-03-14T01:01:56;3.03;;;2.10;;
6207;SDS011;3137;51.550;7.060;2023-03-14T01:04:22;12.83;;;2.33;;
6207;SDS011;3137;51.550;7.060;2023-03-14T01:06:49;1.73;;;1.70;;
6207;SDS011;3137;51.550;7.060;2023-03-14T01:09:15;1.40;;;1.30;;
6207;SDS011;3137;51.550;7.060;2023-03-14T01:11:43;5.67;;;2.13;;
6207;SDS011;3137;51.550;7.060;2023-03-14T01:14:12;3.07;;;2.03;;
6207;SDS011;3137;51.550;7.060;2023-03-14T01:16:39;1.53;;;1.43;;
6207;SDS011;3137;51.550;7.060;2023-03-14T01:19:05;3.10;;;1.30;;
6207;SDS011;3137;51.550;7.060;2023-03-14T01:21:32;1.20;;;1.20;;
6207;SDS011;3137;51.550;7.060;2023-03-14T01:24:01;1.67;;;1.60;;
6207;SDS011;3137;51.550;7.060;2023-03-14T01:26:29;1.57;;;1.40;;
6207;SDS011;3137;51.550;7.060;2023-03-14T01:28:58;1.43;;;1.40;;
6207;SDS011;3137;51.550;7.060;2023-03-14T01:31:26;1.30;;;1.30;;
6207;SDS011;3137;51.550;7.060;2023-03-14T01:33:53;1.60;;;1.60;;
6207;SDS011;3137;51.550;7.060;2023-03-14T01:36:20;4.27;;;1.47;;
6207;SDS011;3137;51.550;7.060;2023-03-14T01:38:46;2.13;;;1.93;;
6207;SDS011;3137;51.550;7.060;2023-03-14T01:41:16;1.63;;;1.50;;
6207;SDS011;3137;51.550;7.060;2023-03-14T01:43:45;2.63;;;1.50;;
6207;SDS011;3137;51.550;7.060;2023-03-14T01:51:41;2.13;;;1.70;;
6207;SDS011;3137;51.550;7.060;2023-03-14T01:56:43;1.47;;;1.47;;
6207;SDS011;3137;51.550;7.060;2023-03-14T01:59:13;1.40;;;1.30;;
6207;SDS011;3137;51.550;7.060;2023-03-14T02:01:41;1.97;;;1.97;;
6207;SDS011;3137;51.550;7.060;2023-03-14T02:04:10;1.30;;;1.30;;
6207;SDS011;3137;51.550;7.060;2023-03-14T02:06:48;7.00;;;1.33;;
6207;SDS011;3137;51.550;7.060;2023-03-14T02:09:21;1.50;;;1.40;;
6207;SDS011;3137;51.550;7.060;2023-03-14T02:11:48;2.97;;;1.70;;
6207;SDS011;3137;51.550;7.060;2023-03-14T02:14:38;1.53;;;1.40;;
6207;SDS011;3137;51.550;7.060;2023-03-14T02:17:31;1.90;;;1.57;;
6207;SDS011;3137;51.550;7.060;2023-03-14T02:22:42;3.30;;;1.50;;
6207;SDS011;3137;51.550;7.060;2023-03-14T02:25:24;2.07;;;1.93;;
6207;SDS011;3137;51.550;7.060;2023-03-14T02:27:57;1.47;;;1.47;;
6207;SDS011;3137;51.550;7.060;2023-03-14T02:30:28;5.30;;;1.67;;
6207;SDS011;3137;51.550;7.060;2023-03-14T02:32:58;4.30;;;1.67;;
6207;SDS011;3137;51.550;7.060;2023-03-14T02:35:29;1.60;;;1.50;;
6207;SDS011;3137;51.550;7.060;2023-03-14T02:38:03;1.50;;;1.50;;
6207;SDS011;3137;51.550;7.060;2023-03-14T02:40:58;1.57;;;1.47;;
6207;SDS011;3137;51.550;7.060;2023-03-14T02:43:25;2.03;;;1.83;;
6207;SDS011;3137;51.550;7.060;2023-03-14T02:45:57;2.23;;;1.57;;
6207;SDS011;3137;51.550;7.060;2023-03-14T02:48:36;1.97;;;1.77;;
6207;SDS011;3137;51.550;7.060;2023-03-14T02:51:09;2.07;;;1.97;;
6207;SDS011;3137;51.550;7.060;2023-03-14T02:53:37;3.83;;;2.03;;
6207;SDS011;3137;51.550;7.060;2023-03-14T02:56:09;5.60;;;1.97;;
6207;SDS011;3137;51.550;7.060;2023-03-14T02:58:36;2.73;;;2.07;;
6207;SDS011;3137;51.550;7.060;2023-03-14T03:01:13;3.00;;;2.07;;
6207;SDS011;3137;51.550;7.060;2023-03-14T03:03:40;4.33;;;1.80;;
6207;SDS011;3137;51.550;7.060;2023-03-14T03:06:06;5.03;;;1.57;;
6207;SDS011;3137;51.550;7.060;2023-03-14T03:08:33;5.37;;;1.67;;
6207;SDS011;3137;51.550;7.060;2023-03-14T03:11:00;5.53;;;1.60;;
6207;SDS011;3137;51.550;7.060;2023-03-14T03:13:28;2.73;;;1.90;;
6207;SDS011;3137;51.550;7.060;2023-03-14T03:15:56;1.80;;;1.67;;
6207;SDS011;3137;51.550;7.060;2023-03-14T03:18:22;1.77;;;1.77;;
6207;SDS011;3137;51.550;7.060;2023-03-14T03:20:49;4.97;;;1.77;;
6207;SDS011;3137;51.550;7.060;2023-03-14T03:23:15;3.87;;;2.40;;
6207;SDS011;3137;51.550;7.060;2023-03-14T03:25:42;4.10;;;1.97;;
6207;SDS011;3137;51.550;7.060;2023-03-14T03:28:13;2.20;;;1.63;;
6207;SDS011;3137;51.550;7.060;2023-03-14T03:30:40;2.40;;;2.07;;
6207;SDS011;3137;51.550;7.060;2023-03-14T03:33:07;1.87;;;1.80;;
6207;SDS011;3137;51.550;7.060;2023-03-14T03:35:34;1.80;;;1.70;;
6207;SDS011;3137;51.550;7.060;2023-03-14T03:38:00;4.20;;;2.57;;
6207;SDS011;3137;51.550;7.060;2023-03-14T03:40:27;1.80;;;1.70;;
6207;SDS011;3137;51.550;7.060;2023-03-14T03:42:54;3.90;;;2.07;;
6207;SDS011;3137;51.550;7.060;2023-03-14T03:45:21;2.90;;;2.37;;
6207;SDS011;3137;51.550;7.060;2023-03-14T03:47:51;9.57;;;3.47;;
6207;SDS011;3137;51.550;7.060;2023-03-14T03:50:18;5.03;;;2.70;;
6207;SDS011;3137;51.550;7.060;2023-03-14T03:52:44;3.10;;;2.63;;
6207;SDS011;3137;51.550;7.060;2023-03-14T03:55:10;7.33;;;2.50;;
6207;SDS011;3137;51.550;7.060;2023-03-14T03:57:37;4.40;;;4.00;;
6207;SDS011;3137;51.550;7.060;2023-03-14T04:00:04;4.90;;;2.60;;
6207;SDS011;3137;51.550;7.060;2023-03-14T04:02:39;3.20;;;2.00;;
6207;SDS011;3137;51.550;7.060;2023-03-14T04:05:08;2.80;;;2.40;;
6207;SDS011;3137;51.550;7.060;2023-03-14T04:07:35;3.50;;;1.90;;
6207;SDS011;3137;51.550;7.060;2023-03-14T04:10:02;2.83;;;2.20;;
6207;SDS011;3137;51.550;7.060;2023-03-14T04:12:35;4.60;;;2.20;;
6207;SDS011;3137;51.550;7.060;2023-03-14T04:15:15;1.87;;;1.60;;
6207;SDS011;3137;51.550;7.060;2023-03-14T04:17:46;2.17;;;1.97;;
6207;SDS011;3137;51.550;7.060;2023-03-14T04:20:13;4.67;;;2.20;;
6207;SDS011;3137;51.550;7.060;2023-03-14T04:22:40;5.20;;;1.90;;
6207;SDS011;3137;51.550;7.060;2023-03-14T04:25:09;2.50;;;1.93;;
6207;SDS011;3137;51.550;7.060;2023-03-14T04:27:41;6.47;;;1.97;;
6207;SDS011;3137;51.550;7.060;2023-03-14T04:30:15;2.50;;;1.80;;
6207;SDS011;3137;51.550;7.060;2023-03-14T04:32:47;3.63;;;1.60;;
6207;SDS011;3137;51.550;7.060;2023-03-14T04:35:14;2.27;;;2.17;;
6207;SDS011;3137;51.550;7.060;2023-03-14T04:37:41;1.27;;;1.27;;
6207;SDS011;3137;51.550;7.060;2023-03-14T04:40:10;1.40;;;1.40;;
6207;SDS011;3137;51.550;7.060;2023-03-14T04:42:37;1.43;;;1.20;;
6207;SDS011;3137;51.550;7.060;2023-03-14T04:45:04;2.40;;;1.40;;
6207;SDS011;3137;51.550;7.060;2023-03-14T04:47:31;1.40;;;1.40;;
6207;SDS011;3137;51.550;7.060;2023-03-14T04:49:58;1.43;;;1.43;;
6207;SDS011;3137;51.550;7.060;2023-03-14T04:52:25;4.07;;;1.23;;
6207;SDS011;3137;51.550;7.060;2023-03-14T04:54:52;1.10;;;1.10;;
6207;SDS011;3137;51.550;7.060;2023-03-14T04:57:20;1.40;;;1.40;;
6207;SDS011;3137;51.550;7.060;2023-03-14T04:59:48;1.10;;;1.10;;
6207;SDS011;3137;51.550;7.060;2023-03-14T05:02:44;0.90;;;0.90;;
6207;SDS011;3137;51.550;7.060;2023-03-14T05:05:28;2.73;;;0.90;;
6207;SDS011;3137;51.550;7.060;2023-03-14T05:08:13;3.50;;;1.07;;
6207;SDS011;3137;51.550;7.060;2023-03-14T05:11:09;2.00;;;1.40;;
6207;SDS011;3137;51.550;7.060;2023-03-14T05:13:56;1.60;;;1.50;;
6207;SDS011;3137;51.550;7.060;2023-03-14T05:16:34;4.00;;;1.30;;
6207;SDS011;3137;51.550;7.060;2023-03-14T05:19:10;1.30;;;1.30;;
6207;SDS011;3137;51.550;7.060;2023-03-14T05:21:56;1.20;;;1.20;;
6207;SDS011;3137;51.550;7.060;2023-03-14T05:24:41;1.10;;;1.10;;
6207;SDS011;3137;51.550;7.060;2023-03-14T05:27:43;1.47;;;1.47;;
6207;SDS011;3137;51.550;7.060;2023-03-14T05:30:18;1.20;;;1.20;;
6207;SDS011;3137;51.550;7.060;2023-03-14T05:32:59;1.80;;;1.27;;
6207;SDS011;3137;51.550;7.060;2023-03-14T05:35:44;1.70;;;1.50;;
6207;SDS011;3137;51.550;7.060;2023-03-14T05:38:31;1.37;;;1.37;;
6207;SDS011;3137;51.550;7.060;2023-03-14T05:41:20;1.93;;;1.93;;
6207;SDS011;3137;51.550;7.060;2023-03-14T05:44:16;2.93;;;1.77;;
6207;SDS011;3137;51.550;7.060;2023-03-14T05:46:55;1.80;;;1.80;;
6207;SDS011;3137;51.550;7.060;2023-03-14T05:49:40;1.13;;;1.13;;
6207;SDS011;3137;51.550;7.060;2023-03-14T05:52:09;1.40;;;1.40;;
6207;SDS011;3137;51.550;7.060;2023-03-14T05:54:45;1.70;;;1.60;;
6207;SDS011;3137;51.550;7.060;2023-03-14T05:57:32;2.00;;;1.90;;
6207;SDS011;3137;51.550;7.060;2023-03-14T06:00:18;2.10;;;2.00;;
6207;SDS011;3137;51.550;7.060;2023-03-14T06:02:54;2.87;;;2.77;;
6207;SDS011;3137;51.550;7.060;2023-03-14T06:05:27;4.43;;;4.23;;
6207;SDS011;3137;51.550;7.060;2023-03-14T06:07:58;1.50;;;1.50;;
6207;SDS011;3137;51.550;7.060;2023-03-14T06:10:26;4.63;;;4.23;;
6207;SDS011;3137;51.550;7.060;2023-03-14T06:12:53;3.83;;;3.17;;
6207;SDS011;3137;51.550;7.060;2023-03-14T06:15:20;2.53;;;2.53;;
6207;SDS011;3137;51.550;7.060;2023-03-14T06:17:49;2.20;;;2.10;;
6207;SDS011;3137;51.550;7.060;2023-03-14T06:20:16;3.37;;;1.83;;
6207;SDS011;3137;51.550;7.060;2023-03-14T06:22:42;1.57;;;1.47;;
6207;SDS011;3137;51.550;7.060;2023-03-14T06:25:11;2.00;;;1.77;;
6207;SDS011;3137;51.550;7.060;2023-03-14T06:27:38;4.27;;;1.90;;
6207;SDS011;3137;51.550;7.060;2023-03-14T06:30:04;2.10;;;2.00;;
6207;SDS011;3137;51.550;7.060;2023-03-14T06:32:31;2.27;;;2.27;;
6207;SDS011;3137;51.550;7.060;2023-03-14T06:35:02;2.27;;;2.23;;
6207;SDS011;3137;51.550;7.060;2023-03-14T06:37:34;4.80;;;2.53;;
6207;SDS011;3137;51.550;7.060;2023-03-14T06:40:01;2.57;;;2.57;;
6207;SDS011;3137;51.550;7.060;2023-03-14T06:43:06;3.73;;;3.60;;
6207;SDS011;3137;51.550;7.060;2023-03-14T06:45:34;3.57;;;3.30;;
6207;SDS011;3137;51.550;7.060;2023-03-14T06:48:02;2.03;;;2.03;;
6207;SDS011;3137;51.550;7.060;2023-03-14T06:50:37;3.60;;;3.00;;
6207;SDS011;3137;51.550;7.060;2023-03-14T06:53:04;4.10;;;3.50;;
6207;SDS011;3137;51.550;7.060;2023-03-14T06:55:32;2.30;;;2.10;;
6207;SDS011;3137;51.550;7.060;2023-03-14T06:57:58;1.63;;;1.63;;
6207;SDS011;3137;51.550;7.060;2023-03-14T07:00:25;5.13;;;3.70;;
6207;SDS011;3137;51.550;7.060;2023-03-14T07:02:54;2.10;;;1.83;;
6207;SDS011;3137;51.550;7.060;2023-03-14T07:05:26;3.20;;;1.90;;
6207;SDS011;3137;51.550;7.060;2023-03-14T07:07:52;1.70;;;1.23;;
6207;SDS011;3137;51.550;7.060;2023-03-14T07:10:19;1.30;;;1.30;;
6207;SDS011;3137;51.550;7.060;2023-03-14T07:12:45;1.60;;;1.60;;
6207;SDS011;3137;51.550;7.060;2023-03-14T07:15:12;0.90;;;0.90;;
6207;SDS011;3137;51.550;7.060;2023-03-14T07:18:03;2.00;;;2.00;;
6207;SDS011;3137;51.550;7.060;2023-03-14T07:20:30;0.90;;;0.90;;
6207;SDS011;3137;51.550;7.060;2023-03-14T07:22:59;0.97;;;0.97;;
6207;SDS011;3137;51.550;7.060;2023-03-14T07:25:34;1.10;;;1.10;;
6207;SDS011;3137;51.550;7.060;2023-03-14T07:28:01;1.40;;;1.40;;
6207;SDS011;3137;51.550;7.060;2023-03-14T07:30:28;1.10;;;1.10;;
6207;SDS011;3137;51.550;7.060;2023-03-14T07:32:56;1.17;;;0.80;;
6207;SDS011;3137;51.550;7.060;2023-03-14T07:35:23;1.00;;;1.00;;
6207;SDS011;3137;51.550;7.060;2023-03-14T07:37:50;1.20;;;1.20;;
6207;SDS011;3137;51.550;7.060;2023-03-14T07:40:22;1.50;;;1.50;;
6207;SDS011;3137;51.550;7.060;2023-03-14T07:42:49;1.50;;;1.50;;
6207;SDS011;3137;51.550;7.060;2023-03-14T07:45:24;1.43;;;1.43;;
6207;SDS011;3137;51.550;7.060;2023-03-14T07:47:53;2.20;;;1.83;;
6207;SDS011;3137;51.550;7.060;2023-03-14T07:50:23;2.20;;;2.10;;
6207;SDS011;3137;51.550;7.060;2023-03-14T07:52:54;1.73;;;1.73;;
6207;SDS011;3137;51.550;7.060;2023-03-14T07:55:21;2.77;;;1.67;;
6207;SDS011;3137;51.550;7.060;2023-03-14T07:57:47;1.60;;;1.60;;
6207;SDS011;3137;51.550;7.060;2023-03-14T08:00:14;2.30;;;2.23;;
6207;SDS011;3137;51.550;7.060;2023-03-14T08:02:41;1.90;;;1.80;;
6207;SDS011;3137;51.550;7.060;2023-03-14T08:05:08;3.00;;;2.20;;
6207;SDS011;3137;51.550;7.060;2023-03-14T08:07:35;1.70;;;1.70;;
6207;SDS011;3137;51.550;7.060;2023-03-14T08:10:02;1.70;;;1.70;;
6207;SDS011;3137;51.550;7.060;2023-03-14T08:12:29;1.80;;;1.70;;
6207;SDS011;3137;51.550;7.060;2023-03-14T08:14:55;1.93;;;1.50;;
6207;SDS011;3137;51.550;7.060;2023-03-14T08:17:22;1.70;;;1.60;;
6207;SDS011;3137;51.550;7.060;2023-03-14T08:19:48;2.97;;;1.97;;
6207;SDS011;3137;51.550;7.060;2023-03-14T08:22:14;2.83;;;2.83;;
6207;SDS011;3137;51.550;7.060;2023-03-14T08:24:45;3.33;;;3.33;;
6207;SDS011;3137;51.550;7.060;2023-03-14T08:27:12;3.70;;;3.37;;
6207;SDS011;3137;51.550;7.060;2023-03-14T08:29:40;3.50;;;3.50;;
6207;SDS011;3137;51.550;7.060;2023-03-14T08:32:07;4.37;;;4.27;;
6207;SDS011;3137;51.550;7.060;2023-03-14T08:34:34;4.40;;;4.27;;
6207;SDS011;3137;51.550;7.060;2023-03-14T08:37:01;4.30;;;4.03;;
6207;SDS011;3137;51.550;7.060;2023-03-14T08:39:31;5.47;;;5.37;;
6207;SDS011;3137;51.550;7.060;2023-03-14T08:41:58;10.07;;;6.20;;
6207;SDS011;3137;51.550;7.060;2023-03-14T08:44:24;6.23;;;6.13;;
6207;SDS011;3137;51.550;7.060;2023-03-14T08:46:50;4.97;;;4.70;;
6207;SDS011;3137;51.550;7.060;2023-03-14T08:49:17;5.53;;;5.43;;
6207;SDS011;3137;51.550;7.060;2023-03-14T08:51:43;9.03;;;6.13;;
6207;SDS011;3137;51.550;7.060;2023-03-14T08:54:10;5.97;;;5.87;;
6207;SDS011;3137;51.550;7.060;2023-03-14T08:56:36;6.23;;;5.93;;
6207;SDS011;3137;51.550;7.060;2023-03-14T08:59:06;6.80;;;6.60;;
6207;SDS011;3137;51.550;7.060;2023-03-14T09:01:32;11.77;;;7.10;;
6207;SDS011;3137;51.550;7.060;2023-03-14T09:03:58;7.80;;;7.50;;
6207;SDS011;3137;51.550;7.060;2023-03-14T09:06:25;8.03;;;7.53;;
6207;SDS011;3137;51.550;7.060;2023-03-14T09:08:51;8.57;;;8.00;;
6207;SDS011;3137;51.550;7.060;2023-03-14T09:11:18;7.30;;;7.00;;
6207;SDS011;3137;51.550;7.060;2023-03-14T09:13:44;7.90;;;6.37;;
6207;SDS011;3137;51.550;7.060;2023-03-14T09:16:11;5.50;;;5.30;;
6207;SDS011;3137;51.550;7.060;2023-03-14T09:18:37;4.13;;;3.93;;
6207;SDS011;3137;51.550;7.060;2023-03-14T09:21:04;4.77;;;4.67;;
6207;SDS011;3137;51.550;7.060;2023-03-14T09:23:30;4.43;;;4.33;;
6207;SDS011;3137;51.550;7.060;2023-03-14T09:25:57;1.23;;;1.23;;
6207;SDS011;3137;51.550;7.060;2023-03-14T09:28:25;1.40;;;1.40;;
6207;SDS011;3137;51.550;7.060;2023-03-14T09:30:52;1.40;;;1.40;;
6207;SDS011;3137;51.550;7.060;2023-03-14T09:33:18;1.50;;;1.50;;
6207;SDS011;3137;51.550;7.060;2023-03-14T09:35:45;1.20;;;1.20;;
6207;SDS011;3137;51.550;7.060;2023-03-14T09:38:11;1.30;;;1.30;;
6207;SDS011;3137;51.550;7.060;2023-03-14T09:40:40;1.10;;;1.10;;
6207;SDS011;3137;51.550;7.060;2023-03-14T09:43:09;1.70;;;1.70;;
6207;SDS011;3137;51.550;7.060;2023-03-14T09:45:40;1.87;;;1.77;;
6207;SDS011;3137;51.550;7.060;2023-03-14T09:48:43;2.23;;;2.23;;
6207;SDS011;3137;51.550;7.060;2023-03-14T09:51:04;3.83;;;3.20;;
6207;SDS011;3137;51.550;7.060;2023-03-14T09:53:41;2.70;;;1.90;;
6207;SDS011;3137;51.550;7.060;2023-03-14T09:56:19;2.63;;;2.63;;
6207;SDS011;3137;51.550;7.060;2023-03-14T09:58:50;10.90;;;1.73;;
6207;SDS011;3137;51.550;7.060;2023-03-14T10:01:22;2.07;;;1.97;;
6207;SDS011;3137;51.550;7.060;2023-03-14T10:03:53;1.70;;;1.70;;
6207;SDS011;3137;51.550;7.060;2023-03-14T10:06:21;1.53;;;1.53;;
6207;SDS011;3137;51.550;7.060;2023-03-14T10:08:51;2.00;;;2.00;;
6207;SDS011;3137;51.550;7.060;2023-03-14T10:11:19;1.83;;;1.83;;
6207;SDS011;3137;51.550;7.060;2023-03-14T10:14:08;1.50;;;1.50;;
6207;SDS011;3137;51.550;7.060;2023-03-14T10:16:35;2.37;;;1.40;;
6207;SDS011;3137;51.550;7.060;2023-03-14T10:19:08;1.47;;;1.47;;
6207;SDS011;3137;51.550;7.060;2023-03-14T10:21:37;1.73;;;1.73;;
6207;SDS011;3137;51.550;7.060;2023-03-14T10:26:36;1.90;;;1.80;;
6207;SDS011;3137;51.550;7.060;2023-03-14T10:29:04;2.30;;;1.67;;
6207;SDS011;3137;51.550;7.060;2023-03-14T10:34:37;1.40;;;1.40;;
6207;SDS011;3137;51.550;7.060;2023-03-14T10:37:12;1.80;;;1.70;;
6207;SDS011;3137;51.550;7.060;2023-03-14T10:39:47;1.63;;;1.53;;
6207;SDS011;3137;51.550;7.060;2023-03-14T10:42:20;2.23;;;2.13;;
6207;SDS011;3137;51.550;7.060;2023-03-14T10:44:54;1.00;;;1.00;;
6207;SDS011;3137;51.550;7.060;2023-03-14T10:47:23;2.33;;;2.33;;
6207;SDS011;3137;51.550;7.060;2023-03-14T10:49:52;2.33;;;2.03;;
6207;SDS011;3137;51.550;7.060;2023-03-14T10:52:25;1.77;;;1.77;;
6207;SDS011;3137;51.550;7.060;2023-03-14T10:55:14;2.70;;;2.63;;
6207;SDS011;3137;51.550;7.060;2023-03-14T10:57:41;2.30;;;2.30;;
6207;SDS011;3137;51.550;7.060;2023-03-14T11:00:15;2.57;;;1.73;;
6207;SDS011;3137;51.550;7.060;2023-03-14T11:02:55;1.50;;;1.40;;
6207;SDS011;3137;51.550;7.060;2023-03-14T11:08:09;2.20;;;2.10;;
6207;SDS011;3137;51.550;7.060;2023-03-14T11:10:45;2.20;;;2.20;;
6207;SDS011;3137;51.550;7.060;2023-03-14T11:13:24;1.30;;;1.30;;
6207;SDS011;3137;51.550;7.060;2023-03-14T11:21:37;1.30;;;1.20;;
6207;SDS011;3137;51.550;7.060;2023-03-14T11:24:27;1.40;;;1.40;;
6207;SDS011;3137;51.550;7.060;2023-03-14T11:27:13;5.40;;;2.13;;
6207;SDS011;3137;51.550;7.060;2023-03-14T11:32:39;1.43;;;1.43;;
6207;SDS011;3137;51.550;7.060;2023-03-14T11:35:16;1.47;;;1.37;;
6207;SDS011;3137;51.550;7.060;2023-03-14T11:37:47;2.20;;;2.20;;
6207;SDS011;3137;51.550;7.060;2023-03-14T11:40:21;1.67;;;1.67;;
6207;SDS011;3137;51.550;7.060;2023-03-14T11:42:53;3.00;;;1.70;;
6207;SDS011;3137;51.550;7.060;2023-03-14T11:45:43;1.63;;;1.60;;
6207;SDS011;3137;51.550;7.060;2023-03-14T11:50:44;2.20;;;2.10;;
6207;SDS011;3137;51.550;7.060;2023-03-14T11:53:17;1.83;;;1.73;;
6207;SDS011;3137;51.550;7.060;2023-03-14T11:55:48;2.60;;;2.60;;
6207;SDS011;3137;51.550;7.060;2023-03-14T12:00:51;1.70;;;1.60;;
6207;SDS011;3137;51.550;7.060;2023-03-14T12:03:29;3.50;;;2.20;;
6207;SDS011;3137;51.550;7.060;2023-03-14T12:08:55;2.47;;;2.47;;
6207;SDS011;3137;51.550;7.060;2023-03-14T12:11:34;2.73;;;2.63;;
6207;SDS011;3137;51.550;7.060;2023-03-14T12:14:17;2.10;;;2.00;;
6207;SDS011;3137;51.550;7.060;2023-03-14T12:17:04;2.87;;;2.13;;
6207;SDS011;3137;51.550;7.060;2023-03-14T12:19:34;2.40;;;2.07;;
6207;SDS011;3137;51.550;7.060;2023-03-14T12:24:54;2.77;;;2.60;;
6207;SDS011;3137;51.550;7.060;2023-03-14T12:30:18;9.70;;;1.70;;
6207;SDS011;3137;51.550;7.060;2023-03-14T12:38:03;2.50;;;2.37;;
6207;SDS011;3137;51.550;7.060;2023-03-14T12:46:56;2.93;;;1.73;;
6207;SDS011;3137;51.550;7.060;2023-03-14T12:49:30;6.03;;;1.80;;
6207;SDS011;3137;51.550;7.060;2023-03-14T12:52:00;1.80;;;1.80;;
6207;SDS011;3137;51.550;7.060;2023-03-14T12:54:40;2.30;;;1.60;;
6207;SDS011;3137;51.550;7.060;2023-03-14T13:00:21;2.33;;;2.13;;
6207;SDS011;3137;51.550;7.060;2023-03-14T13:02:49;4.50;;;2.73;;
6207;SDS011;3137;51.550;7.060;2023-03-14T13:05:18;2.50;;;1.50;;
6207;SDS011;3137;51.550;7.060;2023-03-14T13:10:25;7.30;;;2.70;;
6207;SDS011;3137;51.550;7.060;2023-03-14T13:13:03;12.10;;;3.83;;
6207;SDS011;3137;51.550;7.060;2023-03-14T13:15:42;5.57;;;3.00;;
6207;SDS011;3137;51.550;7.060;2023-03-14T13:18:12;8.10;;;3.73;;
6207;SDS011;3137;51.550;7.060;2023-03-14T13:20:54;5.20;;;3.03;;
6207;SDS011;3137;51.550;7.060;2023-03-14T13:23:26;13.63;;;3.27;;
6207;SDS011;3137;51.550;7.060;2023-03-14T13:25:53;13.67;;;3.47;;
6207;SDS011;3137;51.550;7.060;2023-03-14T13:28:20;8.47;;;2.80;;
6207;SDS011;3137;51.550;7.060;2023-03-14T13:30:48;18.07;;;3.60;;
6207;SDS011;3137;51.550;7.060;2023-03-14T13:33:17;8.93;;;2.43;;
6207;SDS011;3137;51.550;7.060;2023-03-14T13:35:47;2.63;;;2.50;;
6207;SDS011;3137;51.550;7.060;2023-03-14T13:38:17;6.50;;;2.00;;
6207;SDS011;3137;51.550;7.060;2023-03-14T13:40:51;8.80;;;3.33;;
6207;SDS011;3137;51.550;7.060;2023-03-14T13:48:49;17.83;;;3.13;;
6207;SDS011;3137;51.550;7.060;2023-03-14T13:51:19;13.70;;;4.20;;
6207;SDS011;3137;51.550;7.060;2023-03-14T13:53:48;12.30;;;2.30;;
6207;SDS011;3137;51.550;7.060;2023-03-14T13:56:23;12.40;;;3.07;;
6207;SDS011;3137;51.550;7.060;2023-03-14T13:58:51;6.53;;;3.07;;
6207;SDS011;3137;51.550;7.060;2023-03-14T14:01:27;8.30;;;2.60;;
6207;SDS011;3137;51.550;7.060;2023-03-14T14:04:06;3.00;;;2.37;;
6207;SDS011;3137;51.550;7.060;2023-03-14T14:06:36;11.97;;;2.60;;
6207;SDS011;3137;51.550;7.060;2023-03-14T14:11:51;8.73;;;2.20;;
6207;SDS011;3137;51.550;7.060;2023-03-14T14:17:12;16.30;;;2.83;;
6207;SDS011;3137;51.550;7.060;2023-03-14T14:19:43;11.73;;;2.87;;
6207;SDS011;3137;51.550;7.060;2023-03-14T14:22:12;5.17;;;2.33;;
6207;SDS011;3137;51.550;7.060;2023-03-14T14:24:38;14.50;;;2.33;;
6207;SDS011;3137;51.550;7.060;2023-03-14T14:30:06;5.57;;;2.47;;
6207;SDS011;3137;51.550;7.060;2023-03-14T14:32:51;11.00;;;2.60;;
6207;SDS011;3137;51.550;7.060;2023-03-14T14:35:24;8.70;;;2.83;;
6207;SDS011;3137;51.550;7.060;2023-03-14T14:37:52;2.33;;;2.27;;
6207;SDS011;3137;51.550;7.060;2023-03-14T14:40:23;11.07;;;2.77;;
6207;SDS011;3137;51.550;7.060;2023-03-14T14:42:52;10.27;;;3.17;;
6207;SDS011;3137;51.550;7.060;2023-03-14T14:45:20;7.57;;;2.00;;
6207;SDS011;3137;51.550;7.060;2023-03-14T14:47:51;6.60;;;3.20;;
6207;SDS011;3137;51.550;7.060;2023-03-14T14:50:29;5.03;;;2.80;;
6207;SDS011;3137;51.550;7.060;2023-03-14T14:52:57;24.60;;;2.80;;
6207;SDS011;3137;51.550;7.060;2023-03-14T14:55:29;7.47;;;2.80;;
6207;SDS011;3137;51.550;7.060;2023-03-14T14:58:09;4.80;;;2.80;;
6207;SDS011;3137;51.550;7.060;2023-03-14T15:00:40;7.73;;;2.67;;
6207;SDS011;3137;51.550;7.060;2023-03-14T15:03:10;9.73;;;2.57;;
6207;SDS011;3137;51.550;7.060;2023-03-14T15:05:41;9.73;;;2.83;;
6207;SDS011;3137;51.550;7.060;2023-03-14T15:08:08;4.43;;;2.33;;
6207;SDS011;3137;51.550;7.060;2023-03-14T15:10:36;4.17;;;2.00;;
6207;SDS011;3137;51.550;7.060;2023-03-14T15:13:03;2.77;;;2.27;;
6207;SDS011;3137;51.550;7.060;2023-03-14T15:15:29;3.20;;;2.43;;
6207;SDS011;3137;51.550;7.060;2023-03-14T15:17:56;5.30;;;2.23;;
6207;SDS011;3137;51.550;7.060;2023-03-14T15:20:23;7.30;;;2.83;;
6207;SDS011;3137;51.550;7.060;2023-03-14T15:22:50;1.77;;;1.60;;
6207;SDS011;3137;51.550;7.060;2023-03-14T15:25:17;5.77;;;2.30;;
6207;SDS011;3137;51.550;7.060;2023-03-14T15:28:03;6.33;;;1.90;;
6207;SDS011;3137;51.550;7.060;2023-03-14T15:30:29;7.67;;;2.20;;
6207;SDS011;3137;51.550;7.060;2023-03-14T15:32:56;6.33;;;2.20;;
6207;SDS011;3137;51.550;7.060;2023-03-14T15:35:22;4.47;;;2.40;;
6207;SDS011;3137;51.550;7.060;2023-03-14T15:37:48;4.00;;;1.80;;
6207;SDS011;3137;51.550;7.060;2023-03-14T15:40:15;3.30;;;2.07;;
6207;SDS011;3137;51.550;7.060;2023-03-14T15:42:41;2.97;;;2.27;;
6207;SDS011;3137;51.550;7.060;2023-03-14T15:45:08;7.20;;;2.07;;
6207;SDS011;3137;51.550;7.060;2023-03-14T15:47:35;7.00;;;2.00;;
6207;SDS011;3137;51.550;7.060;2023-03-14T15:50:02;2.10;;;2.10;;
6207;SDS011;3137;51.550;7.060;2023-03-14T15:52:29;2.97;;;2.70;;
6207;SDS011;3137;51.550;7.060;2023-03-14T15:54:55;2.30;;;2.20;;
6207;SDS011;3137;51.550;7.060;2023-03-14T15:57:21;5.00;;;2.87;;
6207;SDS011;3137;51.550;7.060;2023-03-14T15:59:48;2.90;;;2.63;;
6207;SDS011;3137;51.550;7.060;2023-03-14T16:02:14;2.13;;;2.03;;
6207;SDS011;3137;51.550;7.060;2023-03-14T16:04:40;5.97;;;2.30;;
6207;SDS011;3137;51.550;7.060;2023-03-14T16:07:07;4.27;;;2.50;;
6207;SDS011;3137;51.550;7.060;2023-03-14T16:09:33;1.77;;;1.73;;
6207;SDS011;3137;51.550;7.060;2023-03-14T16:12:00;2.20;;;1.70;;
6207;SDS011;3137;51.550;7.060;2023-03-14T16:14:26;2.47;;;2.33;;
6207;SDS011;3137;51.550;7.060;2023-03-14T16:16:53;2.57;;;2.57;;
6207;SDS011;3137;51.550;7.060;2023-03-14T16:19:21;1.90;;;1.90;;
6207;SDS011;3137;51.550;7.060;2023-03-14T16:21:47;2.10;;;2.00;;
6207;SDS011;3137;51.550;7.060;2023-03-14T16:24:16;1.63;;;1.53;;
6207;SDS011;3137;51.550;7.060;2023-03-14T16:26:43;2.70;;;2.57;;
6207;SDS011;3137;51.550;7.060;2023-03-14T16:29:10;2.63;;;2.33;;
6207;SDS011;3137;51.550;7.060;2023-03-14T16:31:36;1.70;;;1.70;;
6207;SDS011;3137;51.550;7.060;2023-03-14T16:34:08;2.50;;;2.40;;
6207;SDS011;3137;51.550;7.060;2023-03-14T16:36:35;2.80;;;2.67;;
6207;SDS011;3137;51.550;7.060;2023-03-14T16:39:01;2.70;;;2.60;;
6207;SDS011;3137;51.550;7.060;2023-03-14T16:41:28;6.50;;;2.90;;
6207;SDS011;3137;51.550;7.060;2023-03-14T16:43:57;6.77;;;2.37;;
6207;SDS011;3137;51.550;7.060;2023-03-14T16:46:24;6.57;;;2.43;;
6207;SDS011;3137;51.550;7.060;2023-03-14T16:48:53;5.77;;;2.40;;